createdAt,value
2022-09-04T00:04:26.385Z,9.56
2022-09-04T00:09:57.946Z,9.56
2022-09-04T00:15:20.713Z,9.54
2022-09-04T00:20:29.967Z,9.53
2022-09-04T00:25:55.084Z,9.55
2022-09-04T00:31:27.310Z,9.58
2022-09-04T00:36:31.605Z,9.62
2022-09-04T00:42:22.535Z,9.67
2022-09-04T00:48:05.472Z,9.75
2022-09-04T00:53:26.808Z,9.83
2022-09-04T00:58:33.806Z,9.92
2022-09-04T01:04:15.412Z,10.03
2022-09-04T01:09:44.743Z,10.15
2022-09-04T01:15:16.310Z,10.25
2022-09-04T01:20:39.891Z,10.33
2022-09-04T01:26:10.238Z,10.39
2022-09-04T01:31:50.385Z,10.42
2022-09-04T01:37:06.017Z,10.43
2022-09-04T01:42:18.539Z,10.43
2022-09-04T01:47:30.451Z,10.39
2022-09-04T01:53:05.918Z,10.36
2022-09-04T01:58:15.386Z,10.32
2022-09-04T02:03:41.928Z,10.29
2022-09-04T02:08:47.796Z,10.27
2022-09-04T02:14:09.027Z,10.25
2022-09-04T02:19:31.181Z,10.27
2022-09-04T02:25:00.399Z,10.29
2022-09-04T02:30:10.665Z,10.34
2022-09-04T02:35:51.463Z,10.35
2022-09-04T02:41:27.028Z,10.36
2022-09-04T02:46:38.172Z,10.37
2022-09-04T02:51:50.545Z,10.36
2022-09-04T02:57:02.663Z,10.38
2022-09-04T03:02:15.890Z,10.43
2022-09-04T03:07:28.228Z,10.52
2022-09-04T03:12:50.176Z,10.59
2022-09-04T03:18:16.829Z,10.61
2022-09-04T03:23:33.356Z,10.62
2022-09-04T03:29:01.568Z,10.59
2022-09-04T03:34:11.208Z,10.55
2022-09-04T03:39:31.274Z,10.52
2022-09-04T03:44:50.471Z,10.51
2022-09-04T03:50:18.282Z,10.52
2022-09-04T03:55:48.479Z,10.51
2022-09-04T04:01:27.197Z,10.47
2022-09-04T04:06:30.476Z,10.45
2022-09-04T04:11:51.601Z,10.46
2022-09-04T04:17:22.661Z,10.48
2022-09-04T04:22:45.218Z,10.46
2022-09-04T04:28:07.581Z,10.50
2022-09-04T04:33:42.842Z,10.54
2022-09-04T04:39:01.204Z,10.59
2022-09-04T04:44:17.497Z,10.64
2022-09-04T04:49:29.431Z,10.68
2022-09-04T04:54:51.687Z,10.78
2022-09-04T05:00:08.723Z,10.93
2022-09-04T05:05:23.805Z,11.07
2022-09-04T05:10:42.067Z,11.21
2022-09-04T05:16:10.249Z,11.40
2022-09-04T05:21:38.560Z,11.55
2022-09-04T05:26:50.372Z,11.69
2022-09-04T05:32:05.675Z,11.85
2022-09-04T05:37:23.781Z,12.05
2022-09-04T05:42:42.901Z,12.30
2022-09-04T05:47:46.209Z,12.57
2022-09-04T05:53:11.024Z,12.78
2022-09-04T05:58:20.206Z,13.02
2022-09-04T06:03:38.739Z,13.20
2022-09-04T06:08:52.394Z,13.34
2022-09-04T06:14:07.418Z,13.52
2022-09-04T06:19:38.541Z,13.72
2022-09-04T06:25:10.754Z,13.94
2022-09-04T06:30:16.131Z,14.20
2022-09-04T06:35:27.198Z,14.40
2022-09-04T06:40:39.195Z,14.54
2022-09-04T06:46:24.168Z,14.64
2022-09-04T06:51:39.579Z,14.82
2022-09-04T06:56:54.567Z,15.07
2022-09-04T07:02:22.700Z,15.32
2022-09-04T07:07:44.755Z,15.43
2022-09-04T07:13:25.903Z,15.56
2022-09-04T07:18:54.812Z,15.72
2022-09-04T07:24:02.832Z,15.92
2022-09-04T07:29:25.750Z,16.07
2022-09-04T07:34:35.467Z,16.21
2022-09-04T07:40:30.799Z,16.31
2022-09-04T07:45:35.390Z,16.46
2022-09-04T07:51:05.097Z,16.58
2022-09-04T07:56:39.505Z,16.84
2022-09-04T08:01:57.578Z,17.16
2022-09-04T08:07:10.796Z,17.42
2022-09-04T08:12:35.781Z,17.61
2022-09-04T08:17:58.183Z,17.77
2022-09-04T08:23:17.366Z,17.85
2022-09-04T08:28:36.143Z,17.94
2022-09-04T08:33:45.593Z,17.90
2022-09-04T08:38:49.110Z,17.80
2022-09-04T08:43:58.667Z,17.93
2022-09-04T08:49:12.011Z,18.00
2022-09-04T08:54:33.349Z,18.01
2022-09-04T09:00:08.887Z,17.98
2022-09-04T09:05:46.936Z,18.11
2022-09-04T09:11:15.436Z,18.10
2022-09-04T09:16:20.649Z,18.19
2022-09-04T09:21:39.364Z,18.36
2022-09-04T09:26:55.884Z,18.49
2022-09-04T09:32:40.154Z,18.78
2022-09-04T09:38:04.682Z,18.90
2022-09-04T09:43:53.543Z,18.95
2022-09-04T09:49:27.063Z,19.02
2022-09-04T09:54:51.877Z,19.00
2022-09-04T10:00:13.724Z,19.17
2022-09-04T10:05:19.797Z,19.21
2022-09-04T10:10:46.196Z,19.21
2022-09-04T10:16:06.662Z,19.18
2022-09-04T10:21:21.156Z,19.27
2022-09-04T10:26:43.185Z,19.34
2022-09-04T10:32:07.486Z,19.61
2022-09-04T10:37:35.578Z,20.00
2022-09-04T10:43:12.886Z,20.17
2022-09-04T10:48:28.870Z,20.27
2022-09-04T10:54:15.726Z,20.06
2022-09-04T10:59:36.546Z,19.80
2022-09-04T11:04:49.381Z,19.96
2022-09-04T11:10:11.428Z,20.01
2022-09-04T11:15:41.774Z,20.16
2022-09-04T11:21:21.436Z,20.31
2022-09-04T11:27:05.974Z,20.86
2022-09-04T11:32:38.306Z,21.34
2022-09-04T11:37:41.515Z,21.54
2022-09-04T11:43:15.953Z,21.47
2022-09-04T11:48:31.656Z,21.60
2022-09-04T11:54:00.976Z,21.56
2022-09-04T11:59:28.452Z,21.22
2022-09-04T12:04:43.539Z,21.04
2022-09-04T12:10:11.257Z,20.98
2022-09-04T12:15:38.804Z,20.90
2022-09-04T12:20:57.065Z,20.66
2022-09-04T12:26:21.881Z,20.56
2022-09-04T12:31:51.927Z,20.75
2022-09-04T12:37:24.413Z,20.89
2022-09-04T12:42:51.989Z,20.97
2022-09-04T12:48:20.492Z,20.90
2022-09-04T12:53:47.015Z,20.87
2022-09-04T12:59:25.795Z,20.86
2022-09-04T13:04:41.087Z,20.85
2022-09-04T13:09:57.805Z,20.77
2022-09-04T13:15:22.424Z,20.68
2022-09-04T13:20:57.470Z,20.65
2022-09-04T13:26:30.170Z,20.52
2022-09-04T13:32:10.655Z,20.47
2022-09-04T13:37:45.602Z,20.44
2022-09-04T13:42:54.752Z,20.58
2022-09-04T13:48:08.917Z,20.48
2022-09-04T13:53:21.546Z,20.58
2022-09-04T13:58:34.379Z,20.67
2022-09-04T14:04:02.854Z,20.66
2022-09-04T14:09:07.113Z,20.75
2022-09-04T14:14:31.209Z,20.81
2022-09-04T14:19:59.506Z,21.38
2022-09-04T14:25:16.096Z,24.15
2022-09-04T14:30:23.310Z,28.13
2022-09-04T14:36:05.861Z,32.21
2022-09-04T14:41:24.738Z,35.57
2022-09-04T14:46:56.429Z,38.08
2022-09-04T14:52:10.068Z,40.12
2022-09-04T14:57:39.899Z,43.50
2022-09-04T15:02:56.418Z,46.24
2022-09-04T15:08:03.569Z,48.10
2022-09-04T15:13:19.998Z,49.36
2022-09-04T15:18:34.304Z,49.37
2022-09-04T15:24:26.988Z,47.12
2022-09-04T15:29:33.974Z,47.07
2022-09-04T15:34:38.745Z,46.82
2022-09-04T15:39:49.148Z,47.33
2022-09-04T15:44:52.811Z,48.47
2022-09-04T15:50:01.858Z,46.58
2022-09-04T15:55:30.155Z,44.74
2022-09-04T16:00:56.682Z,45.69
2022-09-04T16:06:06.676Z,46.27
2022-09-04T16:11:22.172Z,45.62
2022-09-04T16:16:48.936Z,44.93
2022-09-04T16:22:27.774Z,43.04
2022-09-04T16:27:32.172Z,42.32
2022-09-04T16:32:36.342Z,40.91
2022-09-04T16:37:50.406Z,39.95
2022-09-04T16:43:17.064Z,38.77
2022-09-04T16:48:34.548Z,37.37
2022-09-04T16:53:50.922Z,36.30
2022-09-04T16:59:00.787Z,34.81
2022-09-04T17:04:17.204Z,32.02
2022-09-04T17:09:30.140Z,29.26
2022-09-04T17:14:43.591Z,28.32
2022-09-04T17:20:04.928Z,25.87
2022-09-04T17:29:10.276Z,23.53
2022-09-04T17:30:56.889Z,21.69
2022-09-04T17:40:52.230Z,20.31
2022-09-04T17:42:08.471Z,19.14
2022-09-04T17:47:34.552Z,18.22
2022-09-04T17:53:04.123Z,17.43
2022-09-04T17:58:11.232Z,16.80
2022-09-04T18:04:02.888Z,16.35
2022-09-04T18:09:40.022Z,15.90
2022-09-04T18:15:12.902Z,15.56
2022-09-04T18:20:51.590Z,15.23
2022-09-04T18:26:22.473Z,14.94
2022-09-04T18:37:12.806Z,14.65
2022-09-04T18:37:46.387Z,14.42
2022-09-04T18:46:06.574Z,14.18
2022-09-04T18:50:30.866Z,13.99
2022-09-04T18:53:51.432Z,13.80
2022-09-04T18:59:01.097Z,13.66
2022-09-04T19:04:45.418Z,13.52
2022-09-04T19:10:21.137Z,13.39
2022-09-04T19:15:27.474Z,13.21
2022-09-04T19:21:26.232Z,13.11
2022-09-04T19:26:47.658Z,13.01
2022-09-04T19:32:07.754Z,12.90
2022-09-04T19:38:22.640Z,12.80
2022-09-04T19:46:02.488Z,12.66
2022-09-04T19:52:58.935Z,12.55
2022-09-04T19:55:25.024Z,12.50
2022-09-04T20:00:43.065Z,12.41
2022-09-04T20:06:20.255Z,12.32
2022-09-04T20:11:38.295Z,12.16
2022-09-04T20:17:13.919Z,12.03
2022-09-04T20:22:48.961Z,11.91
2022-09-04T20:28:16.437Z,11.81
2022-09-04T20:33:27.148Z,11.70
2022-09-04T20:38:51.220Z,11.62
2022-09-04T20:44:15.932Z,11.51
2022-09-04T20:52:55.662Z,11.44
2022-09-04T20:55:46.082Z,11.36
2022-09-04T21:03:23.715Z,11.27
2022-09-04T21:06:32.166Z,11.24
2022-09-04T21:11:43.646Z,11.16
2022-09-04T21:17:33.487Z,11.11
2022-09-04T21:23:05.862Z,11.09
2022-09-04T21:28:33.945Z,11.06
2022-09-04T21:33:55.894Z,11.01
2022-09-04T21:39:10.878Z,11.00
2022-09-04T21:44:22.793Z,10.98
2022-09-04T21:49:38.285Z,10.95
2022-09-04T21:56:44.851Z,10.90
2022-09-04T22:02:41.131Z,10.82
2022-09-04T22:06:03.692Z,10.78
2022-09-04T22:13:38.285Z,10.71
2022-09-04T22:16:52.499Z,10.66
2022-09-04T22:22:03.548Z,10.60
2022-09-04T22:27:28.407Z,10.54
2022-09-04T22:33:16.673Z,10.47
2022-09-04T22:38:35.138Z,10.39
2022-09-04T22:43:46.845Z,10.26
2022-09-04T22:49:20.057Z,10.19
2022-09-04T22:54:50.709Z,10.12
2022-09-04T23:00:13.068Z,10.07
2022-09-04T23:05:35.014Z,10.00
2022-09-04T23:14:02.315Z,9.95
2022-09-04T23:16:54.543Z,9.90
2022-09-04T23:26:45.679Z,9.85
2022-09-04T23:28:40.800Z,9.80
2022-09-04T23:33:56.502Z,9.74
2022-09-04T23:39:35.409Z,9.68
2022-09-04T23:45:30.574Z,9.59
2022-09-04T23:50:59.894Z,9.48
2022-09-04T23:56:42.837Z,9.40
